Time;durP1;ratioP1;P1;durP2;ratioP2;P2;SDS_P1;SDS_P2;PMS_P1;PMS_P2;Temp;Humidity;BMP_temperature;BMP_pressure;BME280_temperature;BME280_humidity;BME280_pressure;Samples;Min_cycle;Max_cycle;Signal;HPM_P1;HPM_P2
2022/06/26 00:01:07;;;;;;;13.30;10.68;;;19.80;99.90;;;;;;5042734;28;20064;-61
2022/06/26 00:03:33;;;;;;;11.88;9.73;;;19.90;99.90;;;;;;5053871;28;20037;-62
2022/06/26 00:05:59;;;;;;;11.90;9.73;;;19.90;99.90;;;;;;5056157;28;20479;-61
2022/06/26 00:08:25;;;;;;;12.73;9.70;;;19.90;99.90;;;;;;5052345;28;20521;-61
2022/06/26 00:10:52;;;;;;;14.63;9.57;;;19.90;99.90;;;;;;5050469;28;20037;-61
2022/06/26 00:13:18;;;;;;;16.25;9.20;;;19.90;99.90;;;;;;5056038;28;20071;-61
2022/06/26 00:15:44;;;;;;;12.30;9.65;;;19.90;99.90;;;;;;5053913;28;20040;-62
2022/06/26 00:18:10;;;;;;;13.85;11.73;;;19.90;99.90;;;;;;5054469;28;20065;-61
2022/06/26 00:20:36;;;;;;;16.90;11.57;;;19.90;99.90;;;;;;5053922;28;20441;-61
2022/06/26 00:23:02;;;;;;;17.27;12.05;;;19.90;99.90;;;;;;5025624;28;20037;-61
2022/06/26 00:25:28;;;;;;;17.13;12.45;;;19.80;99.90;;;;;;5047439;28;20041;-61
2022/06/26 00:27:54;;;;;;;22.40;12.43;;;19.80;99.90;;;;;;5053158;28;20046;-62
2022/06/26 00:30:20;;;;;;;15.80;11.27;;;19.70;99.90;;;;;;5049004;28;20037;-61
2022/06/26 00:32:46;;;;;;;19.48;12.68;;;19.60;99.90;;;;;;5058366;28;20036;-61
2022/06/26 00:35:11;;;;;;;16.73;11.65;;;19.50;99.90;;;;;;5051793;28;20037;-61
2022/06/26 00:37:37;;;;;;;15.23;11.93;;;19.50;99.90;;;;;;5053263;28;20052;-61
2022/06/26 00:40:04;;;;;;;18.95;11.43;;;19.50;99.90;;;;;;5055828;28;20125;-61
2022/06/26 00:42:29;;;;;;;20.08;11.40;;;19.50;99.90;;;;;;5050275;28;20033;-61
2022/06/26 00:44:56;;;;;;;15.52;11.80;;;19.50;99.90;;;;;;5052348;28;20357;-61
2022/06/26 00:47:24;;;;;;;17.27;10.77;;;19.50;99.90;;;;;;5052582;28;20430;-62
2022/06/26 00:49:50;;;;;;;13.90;10.57;;;19.50;99.90;;;;;;5048100;28;20029;-61
2022/06/26 00:52:18;;;;;;;16.17;9.20;;;19.50;99.90;;;;;;5052747;28;20051;-61
2022/06/26 00:54:44;;;;;;;12.90;8.82;;;19.50;99.90;;;;;;5050137;28;20405;-61
2022/06/26 00:57:10;;;;;;;12.57;8.55;;;19.50;99.90;;;;;;5048567;28;20039;-60
2022/06/26 00:59:36;;;;;;;14.48;8.90;;;19.50;99.90;;;;;;5049794;28;20085;-62
2022/06/26 01:02:02;;;;;;;14.68;8.32;;;19.40;99.90;;;;;;5050478;28;20120;-61
2022/06/26 01:04:28;;;;;;;12.73;8.25;;;19.40;99.90;;;;;;5047181;28;20420;-61
2022/06/26 01:06:55;;;;;;;13.35;8.40;;;19.40;99.90;;;;;;5047248;28;20128;-62
2022/06/26 01:09:20;;;;;;;11.25;8.95;;;19.30;99.90;;;;;;5046792;28;20043;-61
2022/06/26 01:11:46;;;;;;;12.65;8.77;;;19.30;99.90;;;;;;5046824;28;20124;-61
2022/06/26 01:14:12;;;;;;;15.75;8.82;;;19.30;99.90;;;;;;5050712;28;20041;-61
2022/06/26 01:16:40;;;;;;;15.00;9.55;;;19.30;99.90;;;;;;5052460;28;20056;-61
2022/06/26 01:19:07;;;;;;;15.52;9.77;;;19.30;99.90;;;;;;5050979;28;20115;-60
2022/06/26 01:21:34;;;;;;;13.90;9.02;;;19.30;99.90;;;;;;5051245;28;20041;-62
2022/06/26 01:24:00;;;;;;;13.98;9.38;;;19.20;99.90;;;;;;5045816;28;20045;-61
2022/06/26 01:26:26;;;;;;;12.93;9.38;;;19.20;99.90;;;;;;5050381;28;20130;-61
2022/06/26 01:28:53;;;;;;;15.02;9.50;;;19.20;99.90;;;;;;5049215;28;20113;-62
2022/06/26 01:31:19;;;;;;;12.85;9.00;;;19.20;99.90;;;;;;5048998;28;20335;-61
2022/06/26 01:33:49;;;;;;;14.38;8.73;;;19.20;99.90;;;;;;5043954;28;20051;-62
2022/06/26 01:36:16;;;;;;;12.48;7.70;;;19.20;99.90;;;;;;5026897;28;20376;-62
2022/06/26 01:38:42;;;;;;;12.45;7.50;;;19.20;99.90;;;;;;5035257;28;20458;-61
2022/06/26 01:41:08;;;;;;;10.45;6.50;;;19.20;99.90;;;;;;5058015;28;20045;-61
2022/06/26 01:43:37;;;;;;;11.57;6.13;;;19.20;99.90;;;;;;5054112;28;20044;-61
2022/06/26 01:46:04;;;;;;;9.65;6.75;;;19.10;99.90;;;;;;5049316;28;20043;-61
2022/06/26 01:48:32;;;;;;;12.88;5.68;;;19.20;99.90;;;;;;5041405;28;20102;-62
2022/06/26 01:50:59;;;;;;;11.57;5.80;;;19.10;99.90;;;;;;5051300;28;20118;-62
2022/06/26 01:53:26;;;;;;;9.77;5.60;;;19.10;99.90;;;;;;5049402;28;20434;-62
2022/06/26 01:55:52;;;;;;;12.88;5.90;;;19.10;99.90;;;;;;5042157;28;20378;-63
2022/06/26 01:58:18;;;;;;;8.85;5.15;;;19.10;99.90;;;;;;5048949;28;20047;-63
2022/06/26 02:00:45;;;;;;;11.90;5.43;;;19.10;99.90;;;;;;5047805;28;20037;-62
2022/06/26 02:03:12;;;;;;;8.27;4.20;;;19.10;99.90;;;;;;5045668;28;20085;-63
2022/06/26 02:05:38;;;;;;;5.35;3.70;;;19.10;99.90;;;;;;5045408;28;20049;-62
2022/06/26 02:08:05;;;;;;;6.25;4.00;;;19.00;99.90;;;;;;5047555;28;20036;-62
2022/06/26 02:16:01;;;;;;;5.00;2.67;;;18.90;99.90;;;;;;5047892;28;20123;-62
2022/06/26 02:18:27;;;;;;;3.88;2.63;;;18.90;99.90;;;;;;5048332;28;20045;-63
2022/06/26 02:20:53;;;;;;;6.93;2.58;;;18.90;99.90;;;;;;5048449;28;20144;-62
2022/06/26 02:23:19;;;;;;;2.50;2.10;;;18.80;99.90;;;;;;5052027;28;20044;-61
2022/06/26 02:25:46;;;;;;;4.85;2.40;;;18.80;99.90;;;;;;5048132;28;20098;-62
2022/06/26 02:28:12;;;;;;;3.97;2.42;;;18.80;99.90;;;;;;5028479;28;20123;-62
2022/06/26 02:30:39;;;;;;;2.90;2.30;;;18.80;99.90;;;;;;5043289;28;20042;-63
2022/06/26 02:33:05;;;;;;;3.63;2.47;;;18.80;99.90;;;;;;5046751;28;20040;-63
2022/06/26 02:35:31;;;;;;;4.00;2.58;;;18.70;99.90;;;;;;5049758;28;20124;-62
2022/06/26 02:37:57;;;;;;;4.93;2.35;;;18.70;99.90;;;;;;5047499;28;20103;-64
2022/06/26 02:40:27;;;;;;;5.38;2.50;;;18.70;99.90;;;;;;5048889;28;20033;-62
2022/06/26 02:42:53;;;;;;;3.67;2.03;;;18.70;99.90;;;;;;5046727;28;20036;-62
2022/06/26 02:45:19;;;;;;;3.88;2.45;;;18.60;99.90;;;;;;5047936;28;20104;-62
2022/06/26 02:47:45;;;;;;;4.20;2.53;;;18.60;99.90;;;;;;5046725;28;20093;-63
2022/06/26 02:50:11;;;;;;;5.43;2.65;;;18.50;99.90;;;;;;5049991;28;20117;-62
2022/06/26 02:52:37;;;;;;;3.97;2.65;;;18.50;99.90;;;;;;5051952;28;20366;-62
2022/06/26 02:55:04;;;;;;;4.00;3.10;;;18.40;99.90;;;;;;5051682;28;20048;-63
2022/06/26 02:57:29;;;;;;;5.68;2.90;;;18.40;99.90;;;;;;5053054;28;20045;-62
2022/06/26 02:59:55;;;;;;;5.10;3.10;;;18.30;99.90;;;;;;5050836;28;20083;-62
2022/06/26 03:02:21;;;;;;;5.78;2.90;;;18.20;99.90;;;;;;5054103;28;20036;-63
2022/06/26 03:04:47;;;;;;;5.15;3.28;;;18.20;99.90;;;;;;5053347;28;20025;-61
2022/06/26 03:07:13;;;;;;;4.20;3.10;;;18.20;99.90;;;;;;5047617;28;20056;-63
2022/06/26 03:09:38;;;;;;;3.38;2.90;;;18.20;99.90;;;;;;5050008;28;20041;-62
2022/06/26 03:12:05;;;;;;;5.43;2.47;;;18.10;99.90;;;;;;5049242;28;20061;-62
2022/06/26 03:14:31;;;;;;;3.55;2.78;;;18.10;99.90;;;;;;5052610;28;20068;-62
2022/06/26 03:16:58;;;;;;;5.53;2.80;;;18.10;99.90;;;;;;5049039;28;20154;-63
2022/06/26 03:19:23;;;;;;;4.55;3.00;;;18.00;99.90;;;;;;5048913;28;20128;-62
2022/06/26 03:21:49;;;;;;;5.30;2.88;;;18.10;99.90;;;;;;5041300;28;20108;-62
2022/06/26 03:24:14;;;;;;;4.35;3.10;;;18.00;99.90;;;;;;5038663;28;20471;-63
2022/06/26 03:26:40;;;;;;;8.07;3.40;;;18.00;99.90;;;;;;5037812;28;20134;-63
2022/06/26 03:29:08;;;;;;;9.95;4.18;;;18.00;99.90;;;;;;5037239;28;20041;-63
2022/06/26 03:31:34;;;;;;;9.70;3.67;;;17.90;99.90;;;;;;5020221;28;20034;-62
2022/06/26 03:34:00;;;;;;;10.80;3.70;;;17.90;99.90;;;;;;5040911;28;20478;-63
2022/06/26 03:36:27;;;;;;;12.15;3.83;;;17.90;99.90;;;;;;5033209;28;20037;-63
2022/06/26 03:38:54;;;;;;;8.45;3.83;;;17.90;99.90;;;;;;5036859;28;20047;-63
2022/06/26 03:41:20;;;;;;;7.28;3.60;;;17.90;99.90;;;;;;5035864;28;20041;-63
2022/06/26 03:43:46;;;;;;;7.00;3.33;;;17.90;99.90;;;;;;5037190;28;21134;-62
2022/06/26 03:46:11;;;;;;;6.20;3.72;;;17.90;99.90;;;;;;5039204;28;20029;-63
2022/06/26 03:48:37;;;;;;;6.97;3.83;;;17.90;99.90;;;;;;5031065;28;20041;-63
2022/06/26 03:51:04;;;;;;;5.40;3.60;;;17.90;99.90;;;;;;5020211;28;20038;-63
2022/06/26 03:53:30;;;;;;;5.28;3.38;;;18.00;99.90;;;;;;5040653;28;20055;-63
2022/06/26 03:55:56;;;;;;;5.28;3.40;;;17.90;99.90;;;;;;5037957;28;20044;-62
2022/06/26 03:58:23;;;;;;;4.80;2.90;;;17.90;99.90;;;;;;5041205;28;20045;-63
2022/06/26 04:00:49;;;;;;;5.68;3.35;;;18.00;99.90;;;;;;5037904;28;20049;-63
2022/06/26 04:03:15;;;;;;;3.45;2.90;;;18.00;99.90;;;;;;5043123;28;20041;-64
2022/06/26 04:05:41;;;;;;;4.65;3.20;;;18.00;99.90;;;;;;5040027;28;20090;-62
2022/06/26 04:08:08;;;;;;;5.85;3.70;;;18.00;99.90;;;;;;5040101;28;20037;-63
2022/06/26 04:10:34;;;;;;;5.15;3.78;;;18.00;99.90;;;;;;5038279;28;20042;-63
2022/06/26 04:13:01;;;;;;;7.15;5.10;;;18.10;99.90;;;;;;5039214;28;20060;-63
2022/06/26 04:15:28;;;;;;;7.20;4.82;;;18.20;99.90;;;;;;5043493;28;20044;-62
2022/06/26 04:17:54;;;;;;;6.53;5.53;;;18.20;99.90;;;;;;5038239;28;20128;-63
2022/06/26 04:20:20;;;;;;;6.97;5.40;;;18.30;99.90;;;;;;5030276;28;20196;-62
2022/06/26 04:23:04;;;;;;;8.30;6.22;;;18.40;99.90;;;;;;5026790;28;20071;-63
2022/06/26 04:25:31;;;;;;;9.23;6.80;;;18.40;99.90;;;;;;5024993;28;20049;-62
2022/06/26 04:27:57;;;;;;;8.48;6.30;;;18.40;99.90;;;;;;5032599;28;20033;-61
2022/06/26 04:30:23;;;;;;;11.27;7.43;;;18.40;99.90;;;;;;5024825;28;20415;-62
2022/06/26 04:32:49;;;;;;;8.77;7.78;;;18.40;99.90;;;;;;5030839;28;20176;-63
2022/06/26 04:35:15;;;;;;;8.55;7.75;;;18.40;99.90;;;;;;5028267;28;20044;-63
2022/06/26 04:37:41;;;;;;;9.88;7.97;;;18.40;99.90;;;;;;5031016;28;20451;-63
2022/06/26 04:40:10;;;;;;;8.90;7.50;;;18.40;99.90;;;;;;5031003;28;20038;-62
2022/06/26 04:42:36;;;;;;;11.60;8.50;;;18.40;99.90;;;;;;5032783;28;20049;-63
2022/06/26 04:45:03;;;;;;;9.13;7.88;;;18.40;99.90;;;;;;5030144;28;20044;-63
2022/06/26 04:47:28;;;;;;;10.20;7.45;;;18.40;99.90;;;;;;5029875;28;20033;-63
2022/06/26 04:49:54;;;;;;;11.80;8.93;;;18.40;99.90;;;;;;5024795;28;20451;-62
2022/06/26 04:52:20;;;;;;;11.85;8.52;;;18.40;99.90;;;;;;5028596;28;20041;-63
2022/06/26 04:54:45;;;;;;;11.27;10.07;;;18.50;99.90;;;;;;5031055;28;21178;-63
2022/06/26 04:57:11;;;;;;;11.30;10.10;;;18.50;99.90;;;;;;5027062;28;20041;-63
2022/06/26 04:59:37;;;;;;;11.38;10.15;;;18.50;99.90;;;;;;5032595;28;20115;-63
2022/06/26 05:02:04;;;;;;;10.75;9.05;;;18.50;99.90;;;;;;5029800;28;20096;-62
2022/06/26 05:04:30;;;;;;;10.10;8.90;;;18.50;99.90;;;;;;5029650;28;20056;-62
2022/06/26 05:06:56;;;;;;;11.77;9.90;;;18.40;99.90;;;;;;5031681;28;20042;-63
2022/06/26 05:09:23;;;;;;;12.88;9.93;;;18.40;99.90;;;;;;5025228;28;20049;-63
2022/06/26 05:11:49;;;;;;;11.80;10.60;;;18.40;99.90;;;;;;5030710;28;20080;-63
2022/06/26 05:14:15;;;;;;;12.27;10.82;;;18.40;99.90;;;;;;5029922;28;20048;-62
2022/06/26 05:16:40;;;;;;;12.27;10.38;;;18.30;99.90;;;;;;5021476;28;20049;-63
2022/06/26 05:19:06;;;;;;;13.18;10.45;;;18.30;99.90;;;;;;5027439;28;20049;-63
2022/06/26 05:21:32;;;;;;;14.20;11.55;;;18.30;99.90;;;;;;5027101;28;20465;-63
2022/06/26 05:23:58;;;;;;;16.25;11.48;;;18.20;99.90;;;;;;5031784;28;20042;-62
2022/06/26 05:26:25;;;;;;;15.05;11.95;;;18.20;99.90;;;;;;5011174;28;20045;-62
2022/06/26 05:28:50;;;;;;;14.23;11.50;;;18.20;99.90;;;;;;5031277;28;20044;-63
2022/06/26 05:31:16;;;;;;;13.43;12.00;;;18.20;99.90;;;;;;5023948;28;20034;-64
2022/06/26 05:33:42;;;;;;;13.10;11.70;;;18.40;99.90;;;;;;5029586;28;20041;-62
2022/06/26 05:36:08;;;;;;;14.55;11.63;;;18.40;99.90;;;;;;5028687;28;20124;-63
2022/06/26 05:38:38;;;;;;;13.75;11.98;;;18.50;99.90;;;;;;4995548;28;20534;-63
2022/06/26 05:41:04;;;;;;;14.43;12.50;;;18.60;99.90;;;;;;5028034;28;20457;-63
2022/06/26 05:43:31;;;;;;;12.98;11.63;;;18.60;99.90;;;;;;5030876;28;20483;-63
2022/06/26 05:45:57;;;;;;;15.02;12.60;;;18.80;99.90;;;;;;5029950;28;20025;-63
2022/06/26 05:48:24;;;;;;;13.88;12.02;;;18.80;99.90;;;;;;5029291;28;20442;-63
2022/06/26 05:50:50;;;;;;;14.25;12.52;;;18.90;99.90;;;;;;5012460;28;20041;-63
2022/06/26 05:53:17;;;;;;;14.45;12.77;;;18.90;99.90;;;;;;5028200;28;20049;-63
2022/06/26 05:55:42;;;;;;;16.83;13.55;;;18.90;99.90;;;;;;5030752;28;20048;-65
2022/06/26 05:58:08;;;;;;;18.83;13.82;;;18.80;99.90;;;;;;5023908;28;20033;-62
2022/06/26 06:00:34;;;;;;;13.23;11.80;;;18.80;99.90;;;;;;5024910;28;20131;-63
2022/06/26 06:03:00;;;;;;;15.02;11.85;;;18.60;99.90;;;;;;5025417;28;20033;-63
2022/06/26 06:05:26;;;;;;;14.95;12.38;;;18.50;99.90;;;;;;5018247;28;20118;-63
2022/06/26 06:07:53;;;;;;;15.23;12.25;;;18.60;99.90;;;;;;5020574;28;20454;-64
2022/06/26 06:10:19;;;;;;;15.35;12.90;;;18.60;99.90;;;;;;5020995;28;20045;-62
2022/06/26 06:12:49;;;;;;;16.40;12.93;;;18.60;99.90;;;;;;5014962;28;20041;-63
2022/06/26 06:15:15;;;;;;;15.63;12.70;;;18.70;99.90;;;;;;5007939;28;20037;-63
2022/06/26 06:17:42;;;;;;;15.88;12.95;;;18.60;99.90;;;;;;5026255;28;20044;-62
2022/06/26 06:20:11;;;;;;;14.35;12.00;;;18.70;99.90;;;;;;5024277;28;20049;-63
2022/06/26 06:22:42;;;;;;;15.73;13.32;;;18.80;99.90;;;;;;5023251;28;20045;-62
2022/06/26 06:25:09;;;;;;;14.88;12.80;;;18.70;99.90;;;;;;5016059;28;20107;-63
2022/06/26 06:27:36;;;;;;;16.55;13.93;;;18.70;99.90;;;;;;5027331;28;20080;-63
2022/06/26 06:30:03;;;;;;;15.40;13.02;;;18.70;99.90;;;;;;5034003;28;20044;-63
2022/06/26 06:32:29;;;;;;;15.40;13.25;;;18.70;99.90;;;;;;5033331;28;20051;-63
2022/06/26 06:34:55;;;;;;;17.08;14.18;;;18.70;99.90;;;;;;5031562;28;20121;-63
2022/06/26 06:37:20;;;;;;;18.88;14.50;;;18.80;99.90;;;;;;5032887;28;20124;-63
2022/06/26 06:39:46;;;;;;;15.85;12.40;;;18.90;99.90;;;;;;5016750;28;20158;-65
2022/06/26 06:42:11;;;;;;;14.70;12.60;;;19.60;99.90;;;;;;5030238;28;20116;-63
2022/06/26 06:44:37;;;;;;;16.30;12.68;;;20.00;99.90;;;;;;5030236;28;20037;-63
2022/06/26 06:47:03;;;;;;;16.77;12.82;;;20.20;99.90;;;;;;5030358;28;20034;-63
2022/06/26 06:49:29;;;;;;;16.13;12.52;;;20.40;99.90;;;;;;5035893;28;20332;-63
2022/06/26 06:51:55;;;;;;;14.90;11.95;;;21.10;99.90;;;;;;5031703;28;20523;-65
2022/06/26 06:54:21;;;;;;;13.85;11.57;;;22.00;99.90;;;;;;5035301;28;20038;-63
2022/06/26 06:56:47;;;;;;;15.13;12.88;;;22.90;99.90;;;;;;5013530;28;20037;-64
2022/06/26 06:59:12;;;;;;;15.73;12.27;;;23.60;99.90;;;;;;5026704;28;20527;-62
2022/06/26 07:01:38;;;;;;;14.02;12.05;;;23.90;99.90;;;;;;5028792;28;20505;-63
2022/06/26 07:04:06;;;;;;;14.32;11.63;;;23.80;99.90;;;;;;5016644;28;20045;-63
2022/06/26 07:06:31;;;;;;;15.50;11.80;;;23.60;99.90;;;;;;5011702;28;20118;-66
2022/06/26 07:08:57;;;;;;;13.35;11.02;;;23.50;99.90;;;;;;5015557;28;20034;-63
2022/06/26 07:11:23;;;;;;;16.08;11.77;;;23.40;99.90;;;;;;5013454;28;20364;-62
2022/06/26 07:13:49;;;;;;;12.95;11.18;;;23.10;99.90;;;;;;5033090;28;20137;-63
2022/06/26 07:16:14;;;;;;;14.80;11.93;;;22.90;99.90;;;;;;5026155;28;20038;-63
2022/06/26 07:18:40;;;;;;;13.15;11.75;;;22.70;99.90;;;;;;5014344;28;20125;-64
2022/06/26 07:21:07;;;;;;;13.45;11.27;;;22.50;99.90;;;;;;5022882;28;20053;-63
2022/06/26 07:23:34;;;;;;;14.27;10.50;;;22.50;99.90;;;;;;5012585;28;20050;-64
2022/06/26 07:26:00;;;;;;;13.88;11.18;;;22.50;99.90;;;;;;5013704;28;20033;-65
2022/06/26 07:28:26;;;;;;;12.82;11.10;;;22.20;99.90;;;;;;4983901;28;20578;-63
2022/06/26 07:30:52;;;;;;;13.57;11.20;;;22.20;99.90;;;;;;5020044;28;20117;-63
2022/06/26 07:36:03;;;;;;;14.07;10.80;;;22.50;99.90;;;;;;5009041;28;20110;-63
2022/06/26 07:38:29;;;;;;;13.82;9.82;;;22.50;99.90;;;;;;5029912;28;20038;-63
2022/06/26 07:40:55;;;;;;;12.52;8.77;;;22.50;99.90;;;;;;5033524;28;20037;-63
2022/06/26 07:43:21;;;;;;;11.32;9.18;;;22.30;99.90;;;;;;5025884;28;20044;-62
2022/06/26 07:45:48;;;;;;;11.82;8.75;;;22.10;99.90;;;;;;5033815;28;20040;-62
2022/06/26 07:48:14;;;;;;;10.38;7.28;;;22.00;99.90;;;;;;5026914;28;20119;-62
2022/06/26 07:50:40;;;;;;;9.93;7.45;;;22.00;99.90;;;;;;5030237;28;20161;-65
2022/06/26 07:53:05;;;;;;;10.30;6.70;;;22.10;99.90;;;;;;5032519;28;20103;-62
2022/06/26 07:55:31;;;;;;;8.18;6.93;;;22.00;99.90;;;;;;5030967;28;20117;-62
2022/06/26 07:57:57;;;;;;;11.63;8.38;;;21.90;99.90;;;;;;5031512;28;20111;-63
2022/06/26 08:00:23;;;;;;;8.98;6.53;;;21.90;99.90;;;;;;5033525;28;20461;-63
2022/06/26 08:02:49;;;;;;;8.45;5.65;;;22.10;99.90;;;;;;5026388;28;20041;-62
2022/06/26 08:05:15;;;;;;;8.93;5.05;;;22.30;99.90;;;;;;5013902;28;20087;-62
2022/06/26 08:07:41;;;;;;;8.38;4.70;;;22.30;99.90;;;;;;5033960;28;20044;-61
2022/06/26 08:10:07;;;;;;;6.22;4.28;;;22.30;99.90;;;;;;5034317;28;20029;-62
2022/06/26 08:12:33;;;;;;;7.45;4.53;;;22.20;99.90;;;;;;5028575;28;20052;-63
2022/06/26 08:14:58;;;;;;;6.28;4.05;;;22.20;99.90;;;;;;5028432;28;20037;-62
2022/06/26 08:17:24;;;;;;;9.05;4.95;;;22.20;99.90;;;;;;5030358;28;20084;-62
2022/06/26 08:19:50;;;;;;;7.15;4.65;;;22.20;99.90;;;;;;5029001;28;20053;-64
2022/06/26 08:22:16;;;;;;;8.05;4.13;;;22.40;99.90;;;;;;5029777;28;20030;-63
2022/06/26 08:24:41;;;;;;;4.72;3.10;;;22.60;99.90;;;;;;5027412;28;20539;-63
2022/06/26 08:27:10;;;;;;;5.10;3.08;;;22.80;99.90;;;;;;5029608;28;20029;-63
2022/06/26 08:29:37;;;;;;;6.43;3.15;;;22.80;99.90;;;;;;5026407;28;20076;-63
2022/06/26 08:32:04;;;;;;;7.25;3.53;;;22.90;99.90;;;;;;5028823;28;20038;-64
2022/06/26 08:34:29;;;;;;;4.85;2.75;;;22.90;99.90;;;;;;5012377;28;20041;-63
2022/06/26 08:36:55;;;;;;;4.88;3.28;;;23.10;99.90;;;;;;5027766;28;20340;-63
2022/06/26 08:39:22;;;;;;;7.03;3.40;;;23.20;99.90;;;;;;5028850;28;20103;-64
2022/06/26 08:41:48;;;;;;;5.93;3.47;;;23.10;99.90;;;;;;5028070;28;20092;-63
2022/06/26 08:44:15;;;;;;;7.35;4.00;;;23.00;99.90;;;;;;5028721;28;20427;-63
2022/06/26 08:46:43;;;;;;;8.05;3.80;;;22.90;99.90;;;;;;5023144;28;20138;-63
2022/06/26 08:49:13;;;;;;;6.38;3.63;;;22.90;99.90;;;;;;5026489;28;20095;-63
2022/06/26 08:51:40;;;;;;;5.65;3.20;;;22.80;99.90;;;;;;5028522;28;20098;-62
2022/06/26 08:54:06;;;;;;;7.40;3.35;;;22.70;99.90;;;;;;5019636;28;20460;-63
2022/06/26 08:56:33;;;;;;;6.63;3.63;;;22.70;99.90;;;;;;5025548;28;20041;-63
2022/06/26 08:58:59;;;;;;;5.05;2.90;;;22.80;99.90;;;;;;5028528;28;20203;-63
2022/06/26 09:01:25;;;;;;;6.57;3.15;;;22.90;99.90;;;;;;5028995;28;20124;-63
2022/06/26 09:03:51;;;;;;;7.82;3.50;;;23.20;99.90;;;;;;5011222;28;20336;-62
2022/06/26 09:06:16;;;;;;;7.55;3.70;;;23.30;99.90;;;;;;5026771;28;20041;-63
2022/06/26 09:08:51;;;;;;;6.07;2.88;;;23.20;99.90;;;;;;5006271;28;20034;-62
2022/06/26 09:11:18;;;;;;;8.50;2.97;;;23.20;99.90;;;;;;5006193;28;20029;-63
2022/06/26 09:13:45;;;;;;;5.85;3.30;;;23.10;99.90;;;;;;5005287;28;20060;-62
2022/06/26 09:16:14;;;;;;;5.03;3.33;;;23.10;99.90;;;;;;5021274;28;20458;-63
2022/06/26 09:18:41;;;;;;;5.60;3.05;;;23.00;99.90;;;;;;5023371;28;20037;-62
2022/06/26 09:21:09;;;;;;;5.43;2.63;;;23.20;99.90;;;;;;5040631;28;20485;-63
2022/06/26 09:23:37;;;;;;;7.88;2.90;;;23.40;99.90;;;;;;5042608;28;20470;-63
2022/06/26 09:26:03;;;;;;;6.72;3.22;;;23.60;99.90;;;;;;5042137;28;20356;-63
2022/06/26 09:28:29;;;;;;;6.65;3.53;;;23.70;99.90;;;;;;5045588;28;20076;-63
2022/06/26 09:30:58;;;;;;;7.22;3.65;;;23.70;99.90;;;;;;5045440;28;20085;-62
2022/06/26 09:33:26;;;;;;;5.95;3.10;;;23.70;99.90;;;;;;5024778;28;20059;-62
2022/06/26 09:35:53;;;;;;;6.95;3.00;;;23.50;99.90;;;;;;5034628;28;20458;-62
2022/06/26 09:38:25;;;;;;;6.03;3.13;;;23.20;99.90;;;;;;5038096;28;20112;-62
2022/06/26 09:40:54;;;;;;;6.65;3.03;;;23.20;99.90;;;;;;5018431;28;20568;-62
2022/06/26 09:43:37;;;;;;;3.58;2.40;;;23.30;99.90;;;;;;5027325;28;20136;-62
2022/06/26 09:46:09;;;;;;;7.50;3.50;;;23.40;99.90;;;;;;5034348;28;20431;-63
2022/06/26 09:48:36;;;;;;;7.22;3.42;;;23.60;99.90;;;;;;5043782;28;20465;-62
2022/06/26 09:51:03;;;;;;;7.78;2.83;;;24.00;99.90;;;;;;5047225;28;20044;-62
2022/06/26 09:53:30;;;;;;;5.70;2.47;;;24.10;99.90;;;;;;5046480;28;20055;-62
2022/06/26 09:55:58;;;;;;;5.30;2.97;;;24.00;99.90;;;;;;5047900;28;20277;-62
2022/06/26 09:58:25;;;;;;;5.28;2.42;;;24.10;99.90;;;;;;5044443;28;20057;-62
2022/06/26 10:06:25;;;;;;;5.43;2.72;;;23.90;99.90;;;;;;5047048;28;20041;-62
2022/06/26 10:09:10;;;;;;;5.22;2.75;;;23.80;99.90;;;;;;5043922;28;20120;-61
2022/06/26 10:11:38;;;;;;;6.75;2.70;;;23.80;99.90;;;;;;5029141;28;20041;-62
2022/06/26 10:14:29;;;;;;;4.53;2.75;;;23.80;99.90;;;;;;5047215;28;20045;-63
2022/06/26 10:17:16;;;;;;;4.88;2.58;;;23.80;99.90;;;;;;5046139;28;20033;-64
2022/06/26 10:19:54;;;;;;;4.03;2.15;;;23.80;99.90;;;;;;5027161;28;20049;-64
2022/06/26 10:22:23;;;;;;;5.03;2.53;;;24.00;99.90;;;;;;5025844;28;20038;-63
2022/06/26 10:24:57;;;;;;;5.47;2.90;;;24.10;99.90;;;;;;5025927;28;20042;-63
2022/06/26 10:27:28;;;;;;;5.75;2.92;;;24.10;99.90;;;;;;5010308;28;20037;-63
2022/06/26 10:30:17;;;;;;;6.45;2.95;;;24.00;99.90;;;;;;5010204;28;20037;-63
2022/06/26 10:32:43;;;;;;;6.68;3.03;;;24.00;99.90;;;;;;5009871;28;20475;-63
2022/06/26 10:35:11;;;;;;;5.20;2.90;;;24.10;99.90;;;;;;5025781;28;20045;-63
2022/06/26 10:37:48;;;;;;;3.60;2.53;;;24.10;99.90;;;;;;5008126;28;20165;-64
2022/06/26 10:43:12;;;;;;;6.60;2.90;;;24.10;99.90;;;;;;5029234;28;20356;-64
2022/06/26 10:45:40;;;;;;;5.57;2.95;;;24.10;99.90;;;;;;5024293;28;20146;-63
2022/06/26 10:48:26;;;;;;;5.72;3.13;;;24.20;99.90;;;;;;5026168;28;20037;-64
2022/06/26 10:50:57;;;;;;;4.53;2.97;;;24.30;99.90;;;;;;5007964;28;20046;-63
2022/06/26 10:53:29;;;;;;;5.70;3.13;;;24.40;99.90;;;;;;5005370;28;20178;-63
2022/06/26 10:55:57;;;;;;;5.53;2.97;;;24.40;99.90;;;;;;5020182;28;20781;-63
2022/06/26 10:58:39;;;;;;;5.55;2.95;;;24.40;99.90;;;;;;5027297;28;20447;-62
2022/06/26 11:01:07;;;;;;;6.60;2.97;;;24.60;99.90;;;;;;5012328;28;20061;-63
2022/06/26 11:03:34;;;;;;;6.18;3.00;;;24.60;99.90;;;;;;5024820;28;20443;-63
2022/06/26 11:06:11;;;;;;;4.88;2.67;;;24.70;99.90;;;;;;5021878;28;20037;-63
2022/06/26 11:08:39;;;;;;;4.78;2.40;;;24.80;99.90;;;;;;5012205;28;20087;-63
2022/06/26 11:11:17;;;;;;;4.60;2.40;;;24.80;99.90;;;;;;5011343;28;20033;-64
2022/06/26 11:14:08;;;;;;;4.80;2.40;;;25.00;99.70;;;;;;5016340;28;20106;-64
2022/06/26 11:16:43;;;;;;;5.40;2.90;;;25.10;99.80;;;;;;4996907;28;20421;-63
2022/06/26 11:19:22;;;;;;;6.38;2.55;;;25.00;99.80;;;;;;5009073;28;20053;-64
2022/06/26 11:21:48;;;;;;;5.75;2.80;;;24.90;99.90;;;;;;5031452;28;20425;-63
2022/06/26 11:24:14;;;;;;;7.65;2.65;;;24.70;99.80;;;;;;5033665;28;20041;-64
2022/06/26 11:26:40;;;;;;;4.63;2.15;;;24.70;99.90;;;;;;5049445;28;20069;-64
2022/06/26 11:29:08;;;;;;;4.88;2.47;;;24.80;99.60;;;;;;5047796;28;20055;-64
2022/06/26 11:31:34;;;;;;;3.85;2.15;;;24.80;99.70;;;;;;5032893;28;20120;-64
2022/06/26 11:34:07;;;;;;;6.03;2.70;;;24.80;99.50;;;;;;5051575;28;20033;-62
2022/06/26 11:36:33;;;;;;;4.75;2.58;;;24.80;99.50;;;;;;5045380;28;20445;-64
2022/06/26 11:38:59;;;;;;;4.82;2.30;;;24.80;99.80;;;;;;5032581;28;20044;-63
2022/06/26 11:41:25;;;;;;;3.45;2.25;;;24.80;99.90;;;;;;5049754;28;20041;-62
2022/06/26 11:43:54;;;;;;;4.70;2.78;;;25.00;99.80;;;;;;5050293;28;20119;-63
2022/06/26 11:46:20;;;;;;;4.55;2.63;;;25.00;99.70;;;;;;5047328;28;20425;-63
2022/06/26 11:48:52;;;;;;;5.25;2.30;;;24.90;99.60;;;;;;5050988;28;20106;-63
2022/06/26 11:51:18;;;;;;;5.50;2.85;;;24.80;99.90;;;;;;5048464;28;20416;-62
2022/06/26 11:53:50;;;;;;;5.68;2.78;;;25.00;99.90;;;;;;5049797;28;20045;-63
2022/06/26 11:56:23;;;;;;;6.30;2.90;;;25.10;99.90;;;;;;5047364;28;20033;-63
2022/06/26 11:58:51;;;;;;;4.32;2.92;;;25.30;99.70;;;;;;5044228;28;20374;-62
2022/06/26 12:01:18;;;;;;;4.47;2.67;;;25.30;99.40;;;;;;5048337;28;20045;-63
2022/06/26 12:03:46;;;;;;;5.25;2.80;;;25.20;99.80;;;;;;5043723;28;20345;-62
2022/06/26 12:06:13;;;;;;;5.05;2.60;;;25.10;99.70;;;;;;5050437;28;20047;-62
2022/06/26 12:08:38;;;;;;;6.68;3.15;;;25.10;99.90;;;;;;5061649;28;20405;-62
2022/06/26 12:11:04;;;;;;;5.75;3.22;;;25.00;99.90;;;;;;5029547;28;20459;-63
2022/06/26 12:13:32;;;;;;;5.72;3.13;;;24.80;99.90;;;;;;5053095;28;20045;-62
2022/06/26 12:16:04;;;;;;;5.32;2.90;;;24.90;99.90;;;;;;5056679;28;20064;-63
2022/06/26 12:18:30;;;;;;;4.50;3.00;;;24.80;99.90;;;;;;5034873;28;20437;-62
2022/06/26 12:20:56;;;;;;;4.68;2.90;;;24.50;99.90;;;;;;5045283;28;20088;-64
2022/06/26 12:23:36;;;;;;;5.65;3.03;;;24.40;99.90;;;;;;5043548;28;20463;-62
2022/06/26 12:26:10;;;;;;;4.53;3.00;;;24.50;99.90;;;;;;5026284;28;20450;-62
2022/06/26 12:28:58;;;;;;;4.32;3.00;;;24.40;99.90;;;;;;5016507;28;20110;-62
2022/06/26 12:31:24;;;;;;;7.78;3.00;;;24.30;99.90;;;;;;5019208;28;20037;-62
2022/06/26 12:33:50;;;;;;;5.18;3.05;;;24.20;99.90;;;;;;5019372;28;20044;-63
2022/06/26 12:36:16;;;;;;;5.80;2.97;;;24.00;99.90;;;;;;5041146;28;20052;-62
2022/06/26 12:38:43;;;;;;;5.25;2.70;;;24.00;99.90;;;;;;5035734;28;20458;-62
2022/06/26 12:41:19;;;;;;;4.35;2.42;;;24.00;99.90;;;;;;5038631;28;20041;-63
2022/06/26 12:43:56;;;;;;;4.65;2.55;;;24.10;99.90;;;;;;5019918;28;20045;-61
2022/06/26 12:46:22;;;;;;;10.50;3.10;;;24.00;99.90;;;;;;5039250;28;20029;-62
2022/06/26 12:48:48;;;;;;;4.90;2.70;;;24.00;99.90;;;;;;5036452;28;20351;-62
2022/06/26 12:51:15;;;;;;;4.68;3.10;;;24.10;99.90;;;;;;5041224;28;20115;-62
2022/06/26 12:53:41;;;;;;;6.75;2.88;;;24.20;99.90;;;;;;5041472;28;20149;-62
2022/06/26 12:56:08;;;;;;;4.80;2.90;;;24.20;99.90;;;;;;5042435;28;20045;-62
2022/06/26 12:58:34;;;;;;;4.18;2.50;;;24.10;99.90;;;;;;5044826;28;20091;-62